< < Back
Terminal Aerodrome Forecast


Current Version              Previous Versions:   1  2  3  4  5  6  7  8  9  

Terminal Aerodrome Forecast

575
FTUS42 KGSP 080539
TAFHKY
TAF
KHKY 080539Z 0806/0906 26003KT P6SM FEW250
     FM081200 18003KT P6SM BKN110
     FM081600 19004KT P6SM OVC060 PROB30 0816/0820 4SM -SHRA OVC040
     FM082000 25006KT P6SM -SHRA SCT030 OVC050
     FM090000 27006KT P6SM SCT050 BKN090=

Latest METAR

030
SAUS70 KWBC 090100 RRC
MTRHKY
METAR KHKY 090053Z AUTO 30006KT 10SM FEW085 SCT100 05/M04 A2966 RMK AO2
SLP038 T00501044


USA.gov is the U.S. government's official web portal to all federal, state and local government web resources and services.